createdAt,value
2022-10-08T00:03:14.449Z,13.92
2022-10-08T00:08:15.853Z,13.97
2022-10-08T00:13:17.276Z,14.01
2022-10-08T00:18:19.908Z,14.14
2022-10-08T00:23:21.341Z,14.24
2022-10-08T00:28:22.838Z,14.39
2022-10-08T00:33:24.309Z,14.45
2022-10-08T00:38:25.705Z,14.34
2022-10-08T00:43:42.466Z,14.02
2022-10-08T00:48:43.946Z,13.87
2022-10-08T00:53:45.501Z,13.75
2022-10-08T00:58:48.973Z,13.67
2022-10-08T01:03:50.417Z,13.63
2022-10-08T01:09:19.301Z,13.66
2022-10-08T01:14:43.551Z,13.96
2022-10-08T01:20:00.655Z,13.69
2022-10-08T01:25:14.473Z,14.18
2022-10-08T01:30:18.101Z,14.80
2022-10-08T01:35:31.986Z,14.80
2022-10-08T01:40:39.281Z,15.01
2022-10-08T01:45:45.978Z,14.70
2022-10-08T01:50:57.561Z,14.53
2022-10-08T01:56:02.638Z,14.56
2022-10-08T02:01:15.745Z,14.55
2022-10-08T02:06:17.306Z,14.73
2022-10-08T02:11:18.706Z,14.91
2022-10-08T02:16:28.245Z,14.76
2022-10-08T02:21:29.886Z,14.75
2022-10-08T02:26:36.941Z,14.60
2022-10-08T02:31:49.610Z,14.70
2022-10-08T02:37:01.641Z,14.80
2022-10-08T02:42:08.494Z,14.67
2022-10-08T02:47:14.362Z,14.48
2022-10-08T02:52:18.746Z,14.54
2022-10-08T02:57:34.126Z,14.58
2022-10-08T03:02:41.442Z,14.40
2022-10-08T03:07:44.058Z,14.39
2022-10-08T03:12:45.995Z,14.37
2022-10-08T03:17:48.700Z,14.36
2022-10-08T03:22:50.259Z,14.41
2022-10-08T03:27:51.754Z,14.44
2022-10-08T03:32:53.136Z,14.57
2022-10-08T03:37:54.564Z,14.44
2022-10-08T03:42:55.966Z,14.53
2022-10-08T03:47:57.374Z,14.60
2022-10-08T03:52:58.776Z,14.04
2022-10-08T03:58:00.157Z,13.73
2022-10-08T04:03:01.608Z,13.68
2022-10-08T04:08:03.245Z,13.62
2022-10-08T04:13:04.661Z,13.60
2022-10-08T04:18:06.274Z,13.59
2022-10-08T04:23:09.054Z,13.62
2022-10-08T04:28:10.493Z,13.64
2022-10-08T04:33:11.914Z,13.62
2022-10-08T04:38:14.392Z,13.69
2022-10-08T04:43:15.856Z,13.61
2022-10-08T04:48:17.271Z,13.71
2022-10-08T04:53:18.662Z,13.70
2022-10-08T04:58:21.302Z,13.58
2022-10-08T05:03:22.691Z,13.51
2022-10-08T05:08:24.156Z,13.45
2022-10-08T05:13:25.674Z,13.52
2022-10-08T05:18:27.078Z,13.49
2022-10-08T05:23:28.520Z,13.51
2022-10-08T05:28:29.969Z,13.53
2022-10-08T05:33:31.422Z,13.58
2022-10-08T05:38:35.191Z,13.58
2022-10-08T05:43:36.867Z,13.60
2022-10-08T05:48:38.947Z,13.59
2022-10-08T05:53:42.161Z,13.60
2022-10-08T05:58:43.963Z,13.60
2022-10-08T06:03:49.369Z,13.59
2022-10-08T06:08:58.522Z,13.61
2022-10-08T06:14:01.139Z,13.61
2022-10-08T06:19:03.984Z,13.60
2022-10-08T06:24:07.892Z,13.61
2022-10-08T06:29:17.138Z,13.65
2022-10-08T06:34:18.697Z,13.71
2022-10-08T06:39:20.196Z,13.72
2022-10-08T06:44:21.599Z,13.72
2022-10-08T06:49:22.981Z,13.69
2022-10-08T06:54:24.566Z,13.97
2022-10-08T06:59:25.952Z,14.12
2022-10-08T07:04:27.360Z,14.14
2022-10-08T07:09:29.065Z,14.08
2022-10-08T07:14:30.495Z,14.14
2022-10-08T07:19:31.913Z,14.12
2022-10-08T07:24:33.426Z,14.11
2022-10-08T07:29:34.965Z,14.18
2022-10-08T07:34:36.580Z,14.28
2022-10-08T07:39:37.993Z,14.33
2022-10-08T07:44:39.387Z,14.34
2022-10-08T07:49:40.789Z,14.33
2022-10-08T07:54:42.201Z,14.34
2022-10-08T07:59:43.658Z,14.41
2022-10-08T08:04:45.086Z,14.56
2022-10-08T08:09:46.484Z,14.71
2022-10-08T08:14:47.903Z,14.86
2022-10-08T08:19:49.358Z,14.96
2022-10-08T08:24:50.791Z,15.08
2022-10-08T08:29:52.240Z,15.17
2022-10-08T08:34:53.712Z,15.25
2022-10-08T08:39:55.108Z,15.35
2022-10-08T08:45:00.462Z,15.48
2022-10-08T08:50:28.075Z,15.58
2022-10-08T08:55:40.994Z,15.63
2022-10-08T09:00:47.092Z,15.66
2022-10-08T09:05:54.842Z,15.76
2022-10-08T09:10:59.156Z,15.78
2022-10-08T09:16:01.462Z,15.83
2022-10-08T09:21:02.886Z,15.97
2022-10-08T09:26:14.963Z,16.06
2022-10-08T09:31:31.747Z,16.15
2022-10-08T09:36:48.203Z,16.27
2022-10-08T09:42:07.937Z,16.39
2022-10-08T09:47:13.110Z,16.49
2022-10-08T09:52:25.203Z,16.58
2022-10-08T09:57:27.803Z,16.74
2022-10-08T10:02:37.959Z,16.84
2022-10-08T10:07:44.830Z,16.97
2022-10-08T10:12:51.073Z,17.09
2022-10-08T10:18:15.779Z,17.23
2022-10-08T10:23:27.635Z,17.32
2022-10-08T10:28:29.034Z,17.37
2022-10-08T10:33:34.084Z,17.36
2022-10-08T10:38:43.310Z,17.52
2022-10-08T10:43:52.647Z,17.62
2022-10-08T10:48:56.003Z,17.63
2022-10-08T10:54:16.677Z,17.61
2022-10-08T10:59:34.021Z,17.68
2022-10-08T11:04:41.139Z,17.70
2022-10-08T11:10:07.776Z,17.61
2022-10-08T11:15:12.174Z,17.60
2022-10-08T11:20:29.272Z,17.55
2022-10-08T11:26:09.868Z,17.47
2022-10-08T11:31:33.130Z,17.30
2022-10-08T11:36:46.118Z,17.20
2022-10-08T11:41:53.608Z,17.22
2022-10-08T11:47:33.816Z,17.16
2022-10-08T11:52:35.310Z,17.06
2022-10-08T11:58:06.171Z,17.04
2022-10-08T12:02:59.490Z,17.07
2022-10-08T12:08:01.306Z,17.02
2022-10-08T12:13:27.809Z,16.95
2022-10-08T12:18:30.955Z,16.89
2022-10-08T12:23:32.313Z,16.71
2022-10-08T12:28:33.784Z,16.47
2022-10-08T12:33:35.247Z,16.35
2022-10-08T12:39:00.984Z,16.28
2022-10-08T12:44:09.517Z,16.27
2022-10-08T12:49:38.287Z,16.30
2022-10-08T12:54:47.344Z,16.21
2022-10-08T12:59:49.747Z,16.35
2022-10-08T13:04:51.204Z,16.36
2022-10-08T13:10:01.757Z,16.40
2022-10-08T13:15:05.985Z,16.55
2022-10-08T13:20:10.146Z,16.51
2022-10-08T13:25:37.588Z,16.39
2022-10-08T13:30:40.131Z,16.35
2022-10-08T13:35:42.652Z,16.30
2022-10-08T13:40:50.509Z,16.27
2022-10-08T13:45:51.949Z,16.33
2022-10-08T13:50:53.626Z,16.29
2022-10-08T13:55:55.172Z,16.31
2022-10-08T14:00:56.669Z,16.38
2022-10-08T14:05:58.201Z,16.40
2022-10-08T14:11:00.016Z,16.42
2022-10-08T14:16:01.496Z,16.30
2022-10-08T14:21:03.844Z,16.38
2022-10-08T14:26:05.362Z,16.44
2022-10-08T14:31:07.039Z,16.38
2022-10-08T14:36:18.128Z,16.33
2022-10-08T14:41:19.520Z,16.32
2022-10-08T14:46:20.939Z,16.29
2022-10-08T14:51:22.373Z,16.32
2022-10-08T14:56:23.769Z,16.23
2022-10-08T15:01:25.360Z,16.19
2022-10-08T15:06:28.048Z,16.11
2022-10-08T15:11:29.531Z,15.99
2022-10-08T15:16:31.329Z,15.90
2022-10-08T15:21:33.545Z,15.87
2022-10-08T15:26:35.326Z,15.84
2022-10-08T15:31:36.770Z,15.68
2022-10-08T15:36:38.266Z,15.36
2022-10-08T15:41:41.412Z,15.22
2022-10-08T15:46:42.822Z,14.99
2022-10-08T15:51:44.256Z,14.86
2022-10-08T15:56:45.646Z,14.80
2022-10-08T16:01:47.082Z,14.73
2022-10-08T16:06:48.524Z,14.59
2022-10-08T16:11:51.082Z,14.52
2022-10-08T16:16:53.494Z,14.55
2022-10-08T16:21:57.092Z,14.44
2022-10-08T16:26:58.508Z,14.36
2022-10-08T16:31:59.938Z,14.15
2022-10-08T16:37:01.602Z,14.11
2022-10-08T16:42:03.242Z,14.11
2022-10-08T16:47:04.872Z,14.05
2022-10-08T16:52:06.260Z,14.02
2022-10-08T16:57:07.772Z,14.02
2022-10-08T17:02:10.301Z,13.95
2022-10-08T17:07:11.732Z,13.90
2022-10-08T17:12:13.163Z,13.80
2022-10-08T17:17:14.642Z,13.75
2022-10-08T17:22:16.059Z,13.69
2022-10-08T17:27:17.492Z,13.61
2022-10-08T17:32:18.897Z,13.53
2022-10-08T17:37:20.301Z,13.47
2022-10-08T17:42:21.676Z,13.46
2022-10-08T17:47:28.353Z,13.44
2022-10-08T17:52:30.583Z,13.43
2022-10-08T17:57:31.983Z,13.47
2022-10-08T18:02:33.430Z,13.59
2022-10-08T18:07:34.882Z,13.67
2022-10-08T18:12:36.264Z,13.67
2022-10-08T18:17:37.685Z,13.64
2022-10-08T18:22:39.167Z,13.63
2022-10-08T18:27:40.567Z,13.63
2022-10-08T18:32:42.401Z,13.56
2022-10-08T18:37:43.793Z,13.60
2022-10-08T18:42:45.505Z,13.56
2022-10-08T18:47:50.186Z,13.54
2022-10-08T18:52:51.646Z,13.54
2022-10-08T18:57:53.683Z,13.52
2022-10-08T19:02:55.921Z,13.42
2022-10-08T19:07:57.371Z,13.43
2022-10-08T19:12:58.780Z,13.35
2022-10-08T19:18:00.204Z,13.33
2022-10-08T19:23:02.029Z,13.30
2022-10-08T19:28:03.814Z,13.31
2022-10-08T19:33:05.259Z,13.27
2022-10-08T19:38:06.665Z,13.21
2022-10-08T19:43:08.078Z,13.14
2022-10-08T19:48:11.212Z,13.08
2022-10-08T19:53:12.786Z,13.02
2022-10-08T19:58:14.207Z,12.99
2022-10-08T20:03:15.625Z,12.98
2022-10-08T20:08:17.096Z,13.00
2022-10-08T20:13:18.504Z,13.00
2022-10-08T20:18:19.910Z,12.97
2022-10-08T20:23:21.310Z,13.02
2022-10-08T20:28:22.758Z,13.00
2022-10-08T20:33:24.191Z,13.00
2022-10-08T20:38:29.246Z,13.03
2022-10-08T20:43:32.423Z,13.08
2022-10-08T20:48:36.026Z,13.15
2022-10-08T20:53:37.732Z,13.17
2022-10-08T20:58:39.189Z,13.19
2022-10-08T21:03:42.031Z,13.16
2022-10-08T21:08:46.178Z,13.21
2022-10-08T21:13:48.038Z,13.26
2022-10-08T21:18:54.867Z,13.26
2022-10-08T21:23:57.321Z,13.28
2022-10-08T21:29:00.835Z,13.27
2022-10-08T21:34:02.570Z,13.26
2022-10-08T21:39:06.146Z,13.22
2022-10-08T21:44:08.741Z,13.26
2022-10-08T21:49:28.057Z,13.27
2022-10-08T21:54:29.535Z,13.28
2022-10-08T21:59:30.945Z,13.19
2022-10-08T22:04:32.407Z,13.18
2022-10-08T22:09:33.878Z,13.16
2022-10-08T22:14:35.402Z,13.21
2022-10-08T22:19:36.813Z,13.26
2022-10-08T22:24:38.212Z,13.26
2022-10-08T22:29:39.617Z,13.30
2022-10-08T22:34:41.036Z,13.35
2022-10-08T22:39:42.455Z,13.40
2022-10-08T22:44:43.905Z,13.41
2022-10-08T22:49:45.294Z,13.47
2022-10-08T22:54:46.703Z,13.43
2022-10-08T22:59:48.168Z,13.40
2022-10-08T23:04:49.560Z,13.32
2022-10-08T23:09:50.967Z,13.29
2022-10-08T23:14:52.415Z,13.33
2022-10-08T23:19:53.803Z,13.33
2022-10-08T23:24:55.259Z,13.31
2022-10-08T23:29:56.672Z,13.28
2022-10-08T23:34:58.058Z,13.29
2022-10-08T23:39:59.459Z,13.26
2022-10-08T23:45:00.848Z,13.26
2022-10-08T23:50:02.242Z,13.26
2022-10-08T23:55:03.865Z,13.22
